Home > Products > Valid Products > TAF

000
FTUS43 KUNR 311120
TAFGCC
TAF
KGCC 311120Z 3112/0112 26014KT P6SM SCT120
     FM311400 30024G34KT P6SM BKN050
     FM010100 32012KT P6SM SCT100=



000
FTUS43 KUNR 311120
TAFRAP
TAF
KRAP 311120Z 3112/0112 31014KT P6SM SCT120
     FM311600 32027G37KT P6SM BKN060
     FM010100 30012KT P6SM SCT120=



000
FTUS43 KUNR 310520
TAFRAP
TAF
KRAP 310520Z 3106/0106 33015KT P6SM BKN100
     FM311500 32026G36KT P6SM BKN060
     FM010000 30013KT P6SM SCT150=



000
FTUS43 KUNR 302305 AAA
TAFRAP
TAF AMD
KRAP 302305Z 3023/3118 33020G30KT P6SM VCTS BKN060CB
     FM310100 33025G35KT P6SM OVC080
     FM310500 30011KT P6SM BKN100=



000
FTUS43 KUNR 301120
TAFGCC
TAF
KGCC 301120Z 3012/3112 23010KT P6SM BKN100
     FM301600 33017G25KT P6SM VCTS BKN060CB
     FM310000 34018G28KT P6SM OVC070
     FM310500 30011KT P6SM BKN100=



000
FTUS43 KUNR 301120
TAFRAP
TAF
KRAP 301120Z 3012/3112 VRB05KT P6SM SCT100
     FM301500 15010KT P6SM BKN100
     FM301800 33020G30KT P6SM VCTS BKN060CB
     FM302300 33025G35KT P6SM OVC080
     FM310600 32012KT P6SM BKN100=



000
FTUS43 KUNR 292050 AAA
TAFRAP
TAF AMD
KRAP 292050Z 2921/3018 16008KT P6SM SCT060 SCT120
      TEMPO 2921/2923 -TSRA BKN050CB
     FM300100 VRB05KT P6SM SCT100=



000
FTUS43 KUNR 290715 AAA
TAFGCC
TAF AMD
KGCC 290715Z 2907/3006 VRB05KT P6SM VCSH BKN090
     FM291000 VRB05KT P6SM SCT100=



    US Dept of Commerce
    National Oceanic and Atmospheric Administration
    National Weather Service
    1325 East West Highway
    Silver Spring, MD 20910
    Page Author: NWS Internet Services Team
Disclaimer
Information Quality
Credits
Glossary
Privacy Policy
Freedom of Information Act (FOIA)
About Us
Career Opportunities